KDVK

Stuart Powell Field Airport

Danville, Kentucky, USA
METAR KDVK 242050Z AUTO 17005KT 3SM RA OVC013 20/19 A3007 RMK AO2
Observed Flight Rules
Sep-24 @ 20:50 UTC (31 minutes ago) Marginal Visual Flight Rules
Wind Visibility Clouds Conditions
170° at 5 knots 3 miles
  • Overcast at 1,300' AGL
  • Rain
Temperatures Readings
Current 20°C / 68°F
Dewpoint 19°C / 66°F
Humidity 94%
Altimeter 30.07" Hg
Pressure 1018 hPa
Elevation 312
METAR KDVK 242050Z AUTO 17005KT 3SM RA OVC013 20/19 A3007 RMK AO2
Observed Flight Rules
Sep-24 @ 20:50 UTC
(31 minutes ago)
MVFR
Wind Visibility
170° at 5 knots 3 miles
Clouds
  • Overcast at 1,300' AGL
Conditions
  • Rain
Temperature Dewpoint
20°C / 68°F 19°C / 66°F
Humidity Altimeter Pressure
94% 30.07" Hg 1018 hPa